CYNR

METAR CYNR 220900Z AUTO 17003KT 9SM CLR M01/M02 A2966 RMK AO2 SLP053
METAR
LOCATION
CYNR
DATE - TIME
220900Z
WIND
170 TRUE @ 3 KNOTS
VISIBILITY
9SM
RUNWAY VISUAL RANGE
NOT REPORTED
WEATHER
CLOUDINESS
CLR
TEMP / DEWPOINT
-1 ºC / -2 ºC
ALTIMETER
29.66 in. Hg
RECENT WEATHER
NOT REPORTED
WIND SHEAR
NOT REPORTED
REMARKS
RMK AO2 SLP053
SEA LEVEL PRESSURE: hPa

CYNR

METAR CYNR 220800Z AUTO 00000KT 9SM CLR M01/M02 A2966 RMK AO2 SLP054
METAR
LOCATION
CYNR
DATE - TIME
220800Z
WIND
CALM WIND
VISIBILITY
9SM
RUNWAY VISUAL RANGE
NOT REPORTED
WEATHER
CLOUDINESS
CLR
TEMP / DEWPOINT
-1 ºC / -2 ºC
ALTIMETER
29.66 in. Hg
RECENT WEATHER
NOT REPORTED
WIND SHEAR
NOT REPORTED
REMARKS
RMK AO2 SLP054
SEA LEVEL PRESSURE: hPa

CYNR

METAR CYNR 220700Z AUTO 00000KT 9SM CLR M01/M02 A2964 RMK AO2 SLP048
METAR
LOCATION
CYNR
DATE - TIME
220700Z
WIND
CALM WIND
VISIBILITY
9SM
RUNWAY VISUAL RANGE
NOT REPORTED
WEATHER
CLOUDINESS
CLR
TEMP / DEWPOINT
-1 ºC / -2 ºC
ALTIMETER
29.64 in. Hg
RECENT WEATHER
NOT REPORTED
WIND SHEAR
NOT REPORTED
REMARKS
RMK AO2 SLP048
SEA LEVEL PRESSURE: hPa

Your time UTC time
 
 
Weather data provided by AXYS Technologies Inc., www.axystechnologies.com
 
Station History